sensor_id;sensor_type;location;lat;lon;timestamp;P1;durP1;ratioP1;P2;durP2;ratioP2
10904;SDS011;5505;51.450;9.254;2023-05-29T00:01:42;4.30;;;3.20;;
10904;SDS011;5505;51.450;9.254;2023-05-29T00:04:30;6.63;;;3.67;;
10904;SDS011;5505;51.450;9.254;2023-05-29T00:07:17;6.03;;;4.10;;
10904;SDS011;5505;51.450;9.254;2023-05-29T00:10:05;4.57;;;3.63;;
10904;SDS011;5505;51.450;9.254;2023-05-29T00:12:53;4.97;;;3.70;;
10904;SDS011;5505;51.450;9.254;2023-05-29T00:15:41;7.50;;;3.93;;
10904;SDS011;5505;51.450;9.254;2023-05-29T00:18:28;5.40;;;3.50;;
10904;SDS011;5505;51.450;9.254;2023-05-29T00:21:17;5.20;;;3.17;;
10904;SDS011;5505;51.450;9.254;2023-05-29T00:24:04;4.63;;;3.33;;
10904;SDS011;5505;51.450;9.254;2023-05-29T00:26:51;4.73;;;3.40;;
10904;SDS011;5505;51.450;9.254;2023-05-29T00:29:38;6.57;;;3.70;;
10904;SDS011;5505;51.450;9.254;2023-05-29T00:32:26;5.43;;;4.03;;
10904;SDS011;5505;51.450;9.254;2023-05-29T00:35:13;6.47;;;3.60;;
10904;SDS011;5505;51.450;9.254;2023-05-29T00:38:02;6.23;;;3.50;;
10904;SDS011;5505;51.450;9.254;2023-05-29T00:40:49;4.80;;;3.67;;
10904;SDS011;5505;51.450;9.254;2023-05-29T00:43:36;6.03;;;4.10;;
10904;SDS011;5505;51.450;9.254;2023-05-29T00:46:23;6.93;;;3.83;;
10904;SDS011;5505;51.450;9.254;2023-05-29T00:49:10;4.83;;;3.60;;
10904;SDS011;5505;51.450;9.254;2023-05-29T00:51:58;5.87;;;3.47;;
10904;SDS011;5505;51.450;9.254;2023-05-29T00:54:46;7.43;;;3.60;;
10904;SDS011;5505;51.450;9.254;2023-05-29T00:57:35;5.87;;;3.80;;
10904;SDS011;5505;51.450;9.254;2023-05-29T01:00:24;6.60;;;4.20;;
10904;SDS011;5505;51.450;9.254;2023-05-29T01:03:11;7.90;;;3.53;;
10904;SDS011;5505;51.450;9.254;2023-05-29T01:06:02;4.70;;;3.70;;
10904;SDS011;5505;51.450;9.254;2023-05-29T01:08:50;6.30;;;4.03;;
10904;SDS011;5505;51.450;9.254;2023-05-29T01:11:41;5.23;;;3.67;;
10904;SDS011;5505;51.450;9.254;2023-05-29T01:14:40;7.03;;;4.37;;
10904;SDS011;5505;51.450;9.254;2023-05-29T01:17:37;5.60;;;3.80;;
10904;SDS011;5505;51.450;9.254;2023-05-29T01:20:31;6.33;;;4.03;;
10904;SDS011;5505;51.450;9.254;2023-05-29T01:26:52;5.33;;;3.73;;
10904;SDS011;5505;51.450;9.254;2023-05-29T01:29:42;5.83;;;3.80;;
10904;SDS011;5505;51.450;9.254;2023-05-29T01:32:30;5.63;;;4.07;;
10904;SDS011;5505;51.450;9.254;2023-05-29T01:35:18;5.80;;;4.10;;
10904;SDS011;5505;51.450;9.254;2023-05-29T01:38:06;6.67;;;3.80;;
10904;SDS011;5505;51.450;9.254;2023-05-29T01:40:53;6.70;;;4.07;;
10904;SDS011;5505;51.450;9.254;2023-05-29T01:43:41;6.43;;;4.17;;
10904;SDS011;5505;51.450;9.254;2023-05-29T01:46:29;7.40;;;4.37;;
10904;SDS011;5505;51.450;9.254;2023-05-29T01:49:17;4.40;;;4.00;;
10904;SDS011;5505;51.450;9.254;2023-05-29T01:52:04;7.57;;;4.20;;
10904;SDS011;5505;51.450;9.254;2023-05-29T01:54:52;8.10;;;4.10;;
10904;SDS011;5505;51.450;9.254;2023-05-29T01:57:39;6.90;;;3.97;;
10904;SDS011;5505;51.450;9.254;2023-05-29T02:00:29;8.03;;;5.10;;
10904;SDS011;5505;51.450;9.254;2023-05-29T02:03:16;5.33;;;4.10;;
10904;SDS011;5505;51.450;9.254;2023-05-29T02:06:03;9.37;;;5.00;;
10904;SDS011;5505;51.450;9.254;2023-05-29T02:08:51;7.97;;;4.47;;
10904;SDS011;5505;51.450;9.254;2023-05-29T02:11:39;7.07;;;4.63;;
10904;SDS011;5505;51.450;9.254;2023-05-29T02:14:30;7.60;;;4.27;;
10904;SDS011;5505;51.450;9.254;2023-05-29T02:17:18;6.00;;;4.10;;
10904;SDS011;5505;51.450;9.254;2023-05-29T02:20:06;6.07;;;4.17;;
10904;SDS011;5505;51.450;9.254;2023-05-29T02:22:53;5.53;;;3.90;;
10904;SDS011;5505;51.450;9.254;2023-05-29T02:25:41;6.07;;;4.23;;
10904;SDS011;5505;51.450;9.254;2023-05-29T02:28:28;7.53;;;4.80;;
10904;SDS011;5505;51.450;9.254;2023-05-29T02:31:15;6.53;;;4.50;;
10904;SDS011;5505;51.450;9.254;2023-05-29T02:34:03;8.67;;;4.17;;
10904;SDS011;5505;51.450;9.254;2023-05-29T02:36:51;5.57;;;3.87;;
10904;SDS011;5505;51.450;9.254;2023-05-29T02:39:38;9.70;;;4.70;;
10904;SDS011;5505;51.450;9.254;2023-05-29T02:42:25;6.60;;;4.03;;
10904;SDS011;5505;51.450;9.254;2023-05-29T02:45:12;9.57;;;4.10;;
10904;SDS011;5505;51.450;9.254;2023-05-29T02:48:02;9.77;;;4.47;;
10904;SDS011;5505;51.450;9.254;2023-05-29T02:50:51;8.00;;;4.33;;
10904;SDS011;5505;51.450;9.254;2023-05-29T02:53:38;8.73;;;3.97;;
10904;SDS011;5505;51.450;9.254;2023-05-29T02:56:25;6.17;;;3.87;;
10904;SDS011;5505;51.450;9.254;2023-05-29T02:59:13;6.47;;;3.83;;
10904;SDS011;5505;51.450;9.254;2023-05-29T03:02:00;6.33;;;3.93;;
10904;SDS011;5505;51.450;9.254;2023-05-29T03:04:47;7.80;;;3.80;;
10904;SDS011;5505;51.450;9.254;2023-05-29T03:07:37;5.80;;;4.10;;
10904;SDS011;5505;51.450;9.254;2023-05-29T03:10:24;8.40;;;4.00;;
10904;SDS011;5505;51.450;9.254;2023-05-29T03:13:11;9.30;;;3.93;;
10904;SDS011;5505;51.450;9.254;2023-05-29T03:15:59;7.10;;;4.10;;
10904;SDS011;5505;51.450;9.254;2023-05-29T03:18:46;8.30;;;3.73;;
10904;SDS011;5505;51.450;9.254;2023-05-29T03:21:33;7.03;;;3.40;;
10904;SDS011;5505;51.450;9.254;2023-05-29T03:24:22;8.27;;;3.60;;
10904;SDS011;5505;51.450;9.254;2023-05-29T03:27:10;7.27;;;4.63;;
10904;SDS011;5505;51.450;9.254;2023-05-29T03:29:58;8.57;;;3.90;;
10904;SDS011;5505;51.450;9.254;2023-05-29T03:32:45;9.43;;;4.23;;
10904;SDS011;5505;51.450;9.254;2023-05-29T03:35:32;7.30;;;3.37;;
10904;SDS011;5505;51.450;9.254;2023-05-29T03:38:19;9.43;;;3.83;;
10904;SDS011;5505;51.450;9.254;2023-05-29T03:41:08;10.27;;;3.30;;
10904;SDS011;5505;51.450;9.254;2023-05-29T03:43:55;9.47;;;3.87;;
10904;SDS011;5505;51.450;9.254;2023-05-29T03:46:42;10.73;;;3.43;;
10904;SDS011;5505;51.450;9.254;2023-05-29T03:49:29;8.67;;;4.17;;
10904;SDS011;5505;51.450;9.254;2023-05-29T03:52:16;8.60;;;3.80;;
10904;SDS011;5505;51.450;9.254;2023-05-29T03:55:05;8.77;;;3.53;;
10904;SDS011;5505;51.450;9.254;2023-05-29T03:57:59;10.60;;;3.60;;
10904;SDS011;5505;51.450;9.254;2023-05-29T04:00:46;7.07;;;3.50;;
10904;SDS011;5505;51.450;9.254;2023-05-29T04:03:33;7.73;;;3.53;;
10904;SDS011;5505;51.450;9.254;2023-05-29T04:06:21;7.50;;;3.13;;
10904;SDS011;5505;51.450;9.254;2023-05-29T04:09:08;7.10;;;3.10;;
10904;SDS011;5505;51.450;9.254;2023-05-29T04:11:55;8.90;;;3.30;;
10904;SDS011;5505;51.450;9.254;2023-05-29T04:14:44;10.07;;;3.63;;
10904;SDS011;5505;51.450;9.254;2023-05-29T04:17:31;7.97;;;3.57;;
10904;SDS011;5505;51.450;9.254;2023-05-29T04:20:18;8.10;;;3.17;;
10904;SDS011;5505;51.450;9.254;2023-05-29T04:23:05;7.33;;;3.00;;
10904;SDS011;5505;51.450;9.254;2023-05-29T04:25:52;8.13;;;3.43;;
10904;SDS011;5505;51.450;9.254;2023-05-29T04:28:39;8.37;;;3.33;;
10904;SDS011;5505;51.450;9.254;2023-05-29T04:31:29;7.73;;;3.10;;
10904;SDS011;5505;51.450;9.254;2023-05-29T04:34:16;11.07;;;3.50;;
10904;SDS011;5505;51.450;9.254;2023-05-29T04:37:03;9.10;;;3.60;;
10904;SDS011;5505;51.450;9.254;2023-05-29T04:39:51;8.50;;;3.30;;
10904;SDS011;5505;51.450;9.254;2023-05-29T04:42:38;8.60;;;3.57;;
10904;SDS011;5505;51.450;9.254;2023-05-29T04:45:25;7.33;;;3.50;;
10904;SDS011;5505;51.450;9.254;2023-05-29T04:48:14;9.53;;;3.20;;
10904;SDS011;5505;51.450;9.254;2023-05-29T04:51:01;8.77;;;3.20;;
10904;SDS011;5505;51.450;9.254;2023-05-29T04:53:49;7.47;;;3.60;;
10904;SDS011;5505;51.450;9.254;2023-05-29T04:56:37;7.20;;;3.50;;
10904;SDS011;5505;51.450;9.254;2023-05-29T04:59:25;7.97;;;3.33;;
10904;SDS011;5505;51.450;9.254;2023-05-29T05:02:12;9.80;;;3.00;;
10904;SDS011;5505;51.450;9.254;2023-05-29T05:05:01;10.43;;;3.67;;
10904;SDS011;5505;51.450;9.254;2023-05-29T05:07:48;8.17;;;3.50;;
10904;SDS011;5505;51.450;9.254;2023-05-29T05:10:35;8.73;;;3.10;;
10904;SDS011;5505;51.450;9.254;2023-05-29T05:13:22;7.57;;;3.23;;
10904;SDS011;5505;51.450;9.254;2023-05-29T05:16:09;7.70;;;2.97;;
10904;SDS011;5505;51.450;9.254;2023-05-29T05:18:57;7.80;;;3.40;;
10904;SDS011;5505;51.450;9.254;2023-05-29T05:21:46;11.60;;;3.50;;
10904;SDS011;5505;51.450;9.254;2023-05-29T05:24:33;8.33;;;3.20;;
10904;SDS011;5505;51.450;9.254;2023-05-29T05:27:21;10.77;;;3.13;;
10904;SDS011;5505;51.450;9.254;2023-05-29T05:30:08;7.77;;;3.27;;
10904;SDS011;5505;51.450;9.254;2023-05-29T05:32:55;8.73;;;3.20;;
10904;SDS011;5505;51.450;9.254;2023-05-29T05:35:43;8.57;;;3.57;;
10904;SDS011;5505;51.450;9.254;2023-05-29T05:38:31;7.20;;;3.00;;
10904;SDS011;5505;51.450;9.254;2023-05-29T05:41:18;6.53;;;2.80;;
10904;SDS011;5505;51.450;9.254;2023-05-29T05:44:06;9.03;;;3.47;;
10904;SDS011;5505;51.450;9.254;2023-05-29T05:46:53;7.40;;;3.07;;
10904;SDS011;5505;51.450;9.254;2023-05-29T05:49:40;9.67;;;3.43;;
10904;SDS011;5505;51.450;9.254;2023-05-29T05:52:28;10.83;;;3.30;;
10904;SDS011;5505;51.450;9.254;2023-05-29T05:55:19;10.57;;;3.93;;
10904;SDS011;5505;51.450;9.254;2023-05-29T05:58:06;6.30;;;3.30;;
10904;SDS011;5505;51.450;9.254;2023-05-29T06:00:53;5.63;;;3.17;;
10904;SDS011;5505;51.450;9.254;2023-05-29T06:03:40;8.33;;;2.90;;
10904;SDS011;5505;51.450;9.254;2023-05-29T06:06:27;4.87;;;2.93;;
10904;SDS011;5505;51.450;9.254;2023-05-29T06:09:16;8.03;;;3.17;;
10904;SDS011;5505;51.450;9.254;2023-05-29T06:12:06;6.53;;;3.07;;
10904;SDS011;5505;51.450;9.254;2023-05-29T06:14:54;9.63;;;3.60;;
10904;SDS011;5505;51.450;9.254;2023-05-29T06:17:41;9.30;;;3.07;;
10904;SDS011;5505;51.450;9.254;2023-05-29T06:20:28;6.37;;;3.10;;
10904;SDS011;5505;51.450;9.254;2023-05-29T06:23:16;7.27;;;2.73;;
10904;SDS011;5505;51.450;9.254;2023-05-29T06:26:03;6.13;;;3.17;;
10904;SDS011;5505;51.450;9.254;2023-05-29T06:28:51;4.67;;;2.90;;
10904;SDS011;5505;51.450;9.254;2023-05-29T06:31:39;8.83;;;3.23;;
10904;SDS011;5505;51.450;9.254;2023-05-29T06:34:26;8.20;;;3.13;;
10904;SDS011;5505;51.450;9.254;2023-05-29T06:37:13;6.37;;;2.90;;
10904;SDS011;5505;51.450;9.254;2023-05-29T06:40:00;7.60;;;3.30;;
10904;SDS011;5505;51.450;9.254;2023-05-29T06:42:47;7.13;;;3.23;;
10904;SDS011;5505;51.450;9.254;2023-05-29T06:45:36;8.90;;;3.43;;
10904;SDS011;5505;51.450;9.254;2023-05-29T06:48:23;9.77;;;3.10;;
10904;SDS011;5505;51.450;9.254;2023-05-29T06:51:10;7.50;;;3.07;;
10904;SDS011;5505;51.450;9.254;2023-05-29T06:53:57;6.77;;;3.17;;
10904;SDS011;5505;51.450;9.254;2023-05-29T06:56:44;8.23;;;2.97;;
10904;SDS011;5505;51.450;9.254;2023-05-29T06:59:32;5.63;;;3.20;;
10904;SDS011;5505;51.450;9.254;2023-05-29T07:02:20;5.93;;;2.83;;
10904;SDS011;5505;51.450;9.254;2023-05-29T07:05:08;5.77;;;2.87;;
10904;SDS011;5505;51.450;9.254;2023-05-29T07:07:55;6.87;;;3.47;;
10904;SDS011;5505;51.450;9.254;2023-05-29T07:10:42;5.83;;;3.07;;
10904;SDS011;5505;51.450;9.254;2023-05-29T07:13:29;5.90;;;3.03;;
10904;SDS011;5505;51.450;9.254;2023-05-29T07:16:16;7.63;;;3.20;;
10904;SDS011;5505;51.450;9.254;2023-05-29T07:19:05;7.53;;;2.90;;
10904;SDS011;5505;51.450;9.254;2023-05-29T07:21:52;6.53;;;2.90;;
10904;SDS011;5505;51.450;9.254;2023-05-29T07:24:39;8.67;;;2.90;;
10904;SDS011;5505;51.450;9.254;2023-05-29T07:27:26;6.33;;;3.10;;
10904;SDS011;5505;51.450;9.254;2023-05-29T07:30:14;8.80;;;3.10;;
10904;SDS011;5505;51.450;9.254;2023-05-29T07:33:01;5.20;;;2.97;;
10904;SDS011;5505;51.450;9.254;2023-05-29T07:35:49;7.47;;;2.90;;
10904;SDS011;5505;51.450;9.254;2023-05-29T07:38:37;4.87;;;2.77;;
10904;SDS011;5505;51.450;9.254;2023-05-29T07:41:24;6.03;;;2.53;;
10904;SDS011;5505;51.450;9.254;2023-05-29T07:44:11;7.13;;;2.53;;
10904;SDS011;5505;51.450;9.254;2023-05-29T07:46:58;5.30;;;3.00;;
10904;SDS011;5505;51.450;9.254;2023-05-29T07:49:46;5.50;;;2.90;;
10904;SDS011;5505;51.450;9.254;2023-05-29T07:52:34;5.30;;;2.90;;
10904;SDS011;5505;51.450;9.254;2023-05-29T07:55:21;6.00;;;2.50;;
10904;SDS011;5505;51.450;9.254;2023-05-29T07:58:08;7.13;;;2.90;;
10904;SDS011;5505;51.450;9.254;2023-05-29T08:00:56;6.30;;;2.83;;
10904;SDS011;5505;51.450;9.254;2023-05-29T08:03:44;8.83;;;3.40;;
10904;SDS011;5505;51.450;9.254;2023-05-29T08:06:31;4.50;;;2.73;;
10904;SDS011;5505;51.450;9.254;2023-05-29T08:09:20;4.23;;;2.63;;
10904;SDS011;5505;51.450;9.254;2023-05-29T08:12:07;7.73;;;3.03;;
10904;SDS011;5505;51.450;9.254;2023-05-29T08:14:54;14.07;;;3.60;;
10904;SDS011;5505;51.450;9.254;2023-05-29T08:17:41;5.30;;;2.90;;
10904;SDS011;5505;51.450;9.254;2023-05-29T08:20:29;6.03;;;2.43;;
10904;SDS011;5505;51.450;9.254;2023-05-29T08:23:16;5.43;;;2.50;;
10904;SDS011;5505;51.450;9.254;2023-05-29T08:26:05;5.67;;;3.10;;
10904;SDS011;5505;51.450;9.254;2023-05-29T08:28:52;6.83;;;2.80;;
10904;SDS011;5505;51.450;9.254;2023-05-29T08:31:40;5.80;;;2.80;;
10904;SDS011;5505;51.450;9.254;2023-05-29T08:34:27;9.93;;;2.93;;
10904;SDS011;5505;51.450;9.254;2023-05-29T08:37:14;6.73;;;3.23;;
10904;SDS011;5505;51.450;9.254;2023-05-29T08:40:01;5.73;;;2.60;;
10904;SDS011;5505;51.450;9.254;2023-05-29T08:42:56;5.63;;;2.50;;
10904;SDS011;5505;51.450;9.254;2023-05-29T08:45:45;7.40;;;2.83;;
10904;SDS011;5505;51.450;9.254;2023-05-29T08:48:38;4.73;;;2.50;;
10904;SDS011;5505;51.450;9.254;2023-05-29T08:51:27;5.50;;;2.50;;
10904;SDS011;5505;51.450;9.254;2023-05-29T08:54:18;6.50;;;2.70;;
10904;SDS011;5505;51.450;9.254;2023-05-29T08:57:05;4.73;;;2.47;;
10904;SDS011;5505;51.450;9.254;2023-05-29T08:59:54;5.33;;;2.33;;
10904;SDS011;5505;51.450;9.254;2023-05-29T09:02:42;6.70;;;2.97;;
10904;SDS011;5505;51.450;9.254;2023-05-29T09:05:30;6.17;;;2.60;;
10904;SDS011;5505;51.450;9.254;2023-05-29T09:08:17;5.07;;;2.70;;
10904;SDS011;5505;51.450;9.254;2023-05-29T09:11:05;5.87;;;2.70;;
10904;SDS011;5505;51.450;9.254;2023-05-29T09:13:52;5.17;;;2.80;;
10904;SDS011;5505;51.450;9.254;2023-05-29T09:16:42;4.80;;;2.60;;
10904;SDS011;5505;51.450;9.254;2023-05-29T09:19:29;7.23;;;2.50;;
10904;SDS011;5505;51.450;9.254;2023-05-29T09:22:16;9.23;;;2.87;;
10904;SDS011;5505;51.450;9.254;2023-05-29T09:25:04;6.93;;;2.90;;
10904;SDS011;5505;51.450;9.254;2023-05-29T09:27:52;5.93;;;2.23;;
10904;SDS011;5505;51.450;9.254;2023-05-29T09:30:42;6.83;;;2.43;;
10904;SDS011;5505;51.450;9.254;2023-05-29T09:33:32;4.77;;;2.47;;
10904;SDS011;5505;51.450;9.254;2023-05-29T09:36:19;5.67;;;2.70;;
10904;SDS011;5505;51.450;9.254;2023-05-29T09:39:08;6.93;;;2.60;;
10904;SDS011;5505;51.450;9.254;2023-05-29T09:41:56;5.70;;;2.60;;
10904;SDS011;5505;51.450;9.254;2023-05-29T09:44:45;5.90;;;2.63;;
10904;SDS011;5505;51.450;9.254;2023-05-29T09:47:36;6.67;;;2.60;;
10904;SDS011;5505;51.450;9.254;2023-05-29T09:50:27;6.00;;;2.60;;
10904;SDS011;5505;51.450;9.254;2023-05-29T09:53:18;5.73;;;2.33;;
10904;SDS011;5505;51.450;9.254;2023-05-29T09:56:07;4.40;;;2.27;;
10904;SDS011;5505;51.450;9.254;2023-05-29T09:58:54;7.73;;;2.87;;
10904;SDS011;5505;51.450;9.254;2023-05-29T10:01:43;6.97;;;2.73;;
10904;SDS011;5505;51.450;9.254;2023-05-29T10:04:31;6.43;;;2.90;;
10904;SDS011;5505;51.450;9.254;2023-05-29T10:07:22;6.07;;;2.63;;
10904;SDS011;5505;51.450;9.254;2023-05-29T10:10:13;7.70;;;2.57;;
10904;SDS011;5505;51.450;9.254;2023-05-29T10:13:03;6.40;;;2.90;;
10904;SDS011;5505;51.450;9.254;2023-05-29T10:15:57;4.93;;;2.57;;
10904;SDS011;5505;51.450;9.254;2023-05-29T10:18:50;7.23;;;2.70;;
10904;SDS011;5505;51.450;9.254;2023-05-29T10:21:41;5.50;;;2.70;;
10904;SDS011;5505;51.450;9.254;2023-05-29T10:24:31;6.43;;;2.70;;
10904;SDS011;5505;51.450;9.254;2023-05-29T10:27:18;11.70;;;2.60;;
10904;SDS011;5505;51.450;9.254;2023-05-29T10:30:09;5.20;;;2.67;;
10904;SDS011;5505;51.450;9.254;2023-05-29T10:33:06;5.97;;;2.60;;
10904;SDS011;5505;51.450;9.254;2023-05-29T10:36:04;5.93;;;2.67;;
10904;SDS011;5505;51.450;9.254;2023-05-29T10:38:59;6.63;;;2.60;;
10904;SDS011;5505;51.450;9.254;2023-05-29T10:41:47;7.53;;;2.67;;
10904;SDS011;5505;51.450;9.254;2023-05-29T10:44:39;6.50;;;2.30;;
10904;SDS011;5505;51.450;9.254;2023-05-29T10:47:27;6.07;;;2.73;;
10904;SDS011;5505;51.450;9.254;2023-05-29T10:50:15;9.80;;;2.67;;
10904;SDS011;5505;51.450;9.254;2023-05-29T10:53:22;4.53;;;2.50;;
10904;SDS011;5505;51.450;9.254;2023-05-29T10:56:14;6.47;;;2.47;;
10904;SDS011;5505;51.450;9.254;2023-05-29T10:59:03;6.27;;;2.70;;
10904;SDS011;5505;51.450;9.254;2023-05-29T11:01:51;5.17;;;2.70;;
10904;SDS011;5505;51.450;9.254;2023-05-29T11:04:38;6.70;;;2.80;;
10904;SDS011;5505;51.450;9.254;2023-05-29T11:07:33;4.83;;;2.43;;
10904;SDS011;5505;51.450;9.254;2023-05-29T11:13:32;7.17;;;2.60;;
10904;SDS011;5505;51.450;9.254;2023-05-29T11:16:36;6.97;;;2.63;;
10904;SDS011;5505;51.450;9.254;2023-05-29T11:19:24;7.93;;;2.70;;
10904;SDS011;5505;51.450;9.254;2023-05-29T11:22:14;8.00;;;2.70;;
10904;SDS011;5505;51.450;9.254;2023-05-29T11:25:06;10.83;;;3.30;;
10904;SDS011;5505;51.450;9.254;2023-05-29T11:27:53;4.80;;;2.43;;
10904;SDS011;5505;51.450;9.254;2023-05-29T11:30:44;12.20;;;2.93;;
10904;SDS011;5505;51.450;9.254;2023-05-29T11:33:33;13.03;;;2.60;;
10904;SDS011;5505;51.450;9.254;2023-05-29T11:36:26;5.83;;;2.77;;
10904;SDS011;5505;51.450;9.254;2023-05-29T11:39:13;9.87;;;2.80;;
10904;SDS011;5505;51.450;9.254;2023-05-29T11:42:00;5.93;;;2.70;;
10904;SDS011;5505;51.450;9.254;2023-05-29T11:44:48;7.43;;;2.90;;
10904;SDS011;5505;51.450;9.254;2023-05-29T11:47:49;9.73;;;3.07;;
10904;SDS011;5505;51.450;9.254;2023-05-29T11:50:38;5.50;;;2.67;;
10904;SDS011;5505;51.450;9.254;2023-05-29T11:53:26;8.40;;;2.70;;
10904;SDS011;5505;51.450;9.254;2023-05-29T11:56:13;6.43;;;2.70;;
10904;SDS011;5505;51.450;9.254;2023-05-29T11:59:00;7.87;;;2.93;;
10904;SDS011;5505;51.450;9.254;2023-05-29T12:01:50;6.57;;;2.60;;
10904;SDS011;5505;51.450;9.254;2023-05-29T12:04:38;8.90;;;2.60;;
10904;SDS011;5505;51.450;9.254;2023-05-29T12:07:26;5.60;;;2.77;;
10904;SDS011;5505;51.450;9.254;2023-05-29T12:10:14;7.07;;;2.50;;
10904;SDS011;5505;51.450;9.254;2023-05-29T12:13:03;7.97;;;2.97;;
10904;SDS011;5505;51.450;9.254;2023-05-29T12:15:51;6.50;;;2.60;;
10904;SDS011;5505;51.450;9.254;2023-05-29T12:18:40;6.77;;;2.77;;
10904;SDS011;5505;51.450;9.254;2023-05-29T12:21:27;8.70;;;2.90;;
10904;SDS011;5505;51.450;9.254;2023-05-29T12:24:18;7.50;;;2.60;;
10904;SDS011;5505;51.450;9.254;2023-05-29T12:27:06;5.93;;;2.80;;
10904;SDS011;5505;51.450;9.254;2023-05-29T12:29:59;6.00;;;2.67;;
10904;SDS011;5505;51.450;9.254;2023-05-29T12:32:47;5.27;;;2.30;;
10904;SDS011;5505;51.450;9.254;2023-05-29T12:35:37;8.37;;;2.93;;
10904;SDS011;5505;51.450;9.254;2023-05-29T12:38:24;9.53;;;3.00;;
10904;SDS011;5505;51.450;9.254;2023-05-29T12:41:22;5.23;;;2.50;;
10904;SDS011;5505;51.450;9.254;2023-05-29T12:44:11;4.70;;;2.30;;
10904;SDS011;5505;51.450;9.254;2023-05-29T12:46:58;9.83;;;3.00;;
10904;SDS011;5505;51.450;9.254;2023-05-29T12:49:45;7.57;;;2.93;;
10904;SDS011;5505;51.450;9.254;2023-05-29T12:52:32;14.20;;;3.33;;
10904;SDS011;5505;51.450;9.254;2023-05-29T12:55:19;5.17;;;2.30;;
10904;SDS011;5505;51.450;9.254;2023-05-29T12:58:08;9.20;;;2.40;;
10904;SDS011;5505;51.450;9.254;2023-05-29T13:00:56;8.57;;;2.70;;
10904;SDS011;5505;51.450;9.254;2023-05-29T13:03:43;10.30;;;2.70;;
10904;SDS011;5505;51.450;9.254;2023-05-29T13:06:30;5.33;;;2.50;;
10904;SDS011;5505;51.450;9.254;2023-05-29T13:09:17;5.47;;;2.43;;
10904;SDS011;5505;51.450;9.254;2023-05-29T13:12:05;7.93;;;2.47;;
10904;SDS011;5505;51.450;9.254;2023-05-29T13:14:53;4.63;;;2.30;;
10904;SDS011;5505;51.450;9.254;2023-05-29T13:17:41;6.63;;;2.40;;
10904;SDS011;5505;51.450;9.254;2023-05-29T13:20:28;5.37;;;2.37;;
10904;SDS011;5505;51.450;9.254;2023-05-29T13:23:17;5.40;;;2.80;;
10904;SDS011;5505;51.450;9.254;2023-05-29T13:26:04;5.10;;;2.27;;
10904;SDS011;5505;51.450;9.254;2023-05-29T13:28:51;7.37;;;2.77;;
10904;SDS011;5505;51.450;9.254;2023-05-29T13:31:40;7.73;;;2.83;;
10904;SDS011;5505;51.450;9.254;2023-05-29T13:34:27;7.23;;;2.50;;
10904;SDS011;5505;51.450;9.254;2023-05-29T13:37:15;8.30;;;2.70;;
10904;SDS011;5505;51.450;9.254;2023-05-29T13:40:02;5.30;;;2.27;;
10904;SDS011;5505;51.450;9.254;2023-05-29T13:42:50;6.83;;;2.37;;
10904;SDS011;5505;51.450;9.254;2023-05-29T13:45:37;6.10;;;2.47;;
10904;SDS011;5505;51.450;9.254;2023-05-29T13:48:27;5.23;;;2.40;;
10904;SDS011;5505;51.450;9.254;2023-05-29T13:51:14;6.23;;;2.60;;
10904;SDS011;5505;51.450;9.254;2023-05-29T13:54:01;5.20;;;2.40;;
10904;SDS011;5505;51.450;9.254;2023-05-29T13:56:48;6.03;;;2.40;;
10904;SDS011;5505;51.450;9.254;2023-05-29T13:59:36;5.00;;;2.43;;
10904;SDS011;5505;51.450;9.254;2023-05-29T14:02:23;5.93;;;2.30;;
10904;SDS011;5505;51.450;9.254;2023-05-29T14:05:12;7.67;;;2.47;;
10904;SDS011;5505;51.450;9.254;2023-05-29T14:07:59;10.87;;;2.60;;
10904;SDS011;5505;51.450;9.254;2023-05-29T14:10:46;5.87;;;2.37;;
10904;SDS011;5505;51.450;9.254;2023-05-29T14:13:33;4.00;;;2.00;;
10904;SDS011;5505;51.450;9.254;2023-05-29T14:16:20;6.00;;;2.20;;
10904;SDS011;5505;51.450;9.254;2023-05-29T14:19:07;7.20;;;2.77;;
10904;SDS011;5505;51.450;9.254;2023-05-29T14:21:56;6.40;;;2.50;;
10904;SDS011;5505;51.450;9.254;2023-05-29T14:24:45;4.73;;;2.50;;
10904;SDS011;5505;51.450;9.254;2023-05-29T14:27:32;4.83;;;2.80;;
10904;SDS011;5505;51.450;9.254;2023-05-29T14:30:19;4.83;;;2.40;;
10904;SDS011;5505;51.450;9.254;2023-05-29T14:33:06;5.80;;;2.40;;
10904;SDS011;5505;51.450;9.254;2023-05-29T14:35:53;5.53;;;2.50;;
10904;SDS011;5505;51.450;9.254;2023-05-29T14:38:42;5.13;;;2.30;;
10904;SDS011;5505;51.450;9.254;2023-05-29T14:41:29;4.73;;;2.27;;
10904;SDS011;5505;51.450;9.254;2023-05-29T14:44:16;10.13;;;2.93;;
10904;SDS011;5505;51.450;9.254;2023-05-29T14:47:04;6.63;;;2.73;;
10904;SDS011;5505;51.450;9.254;2023-05-29T14:49:51;6.97;;;2.60;;
10904;SDS011;5505;51.450;9.254;2023-05-29T14:52:39;4.90;;;2.40;;
10904;SDS011;5505;51.450;9.254;2023-05-29T14:55:27;4.50;;;2.30;;
10904;SDS011;5505;51.450;9.254;2023-05-29T14:58:16;5.20;;;2.57;;
10904;SDS011;5505;51.450;9.254;2023-05-29T15:01:03;6.80;;;2.73;;
10904;SDS011;5505;51.450;9.254;2023-05-29T15:03:51;4.33;;;2.20;;
10904;SDS011;5505;51.450;9.254;2023-05-29T15:06:38;5.07;;;2.30;;
10904;SDS011;5505;51.450;9.254;2023-05-29T15:09:25;4.30;;;2.27;;
10904;SDS011;5505;51.450;9.254;2023-05-29T15:12:13;5.13;;;2.47;;
10904;SDS011;5505;51.450;9.254;2023-05-29T15:15:01;3.90;;;2.17;;
10904;SDS011;5505;51.450;9.254;2023-05-29T15:17:49;5.47;;;2.40;;
10904;SDS011;5505;51.450;9.254;2023-05-29T15:20:38;6.10;;;2.13;;
10904;SDS011;5505;51.450;9.254;2023-05-29T15:23:26;4.57;;;2.37;;
10904;SDS011;5505;51.450;9.254;2023-05-29T15:26:13;5.63;;;2.20;;
10904;SDS011;5505;51.450;9.254;2023-05-29T15:29:01;4.93;;;2.70;;
10904;SDS011;5505;51.450;9.254;2023-05-29T15:31:49;4.07;;;2.27;;
10904;SDS011;5505;51.450;9.254;2023-05-29T15:34:36;7.17;;;2.17;;
10904;SDS011;5505;51.450;9.254;2023-05-29T15:37:25;6.90;;;2.60;;
10904;SDS011;5505;51.450;9.254;2023-05-29T15:40:12;4.03;;;2.40;;
10904;SDS011;5505;51.450;9.254;2023-05-29T15:43:02;5.93;;;2.63;;
10904;SDS011;5505;51.450;9.254;2023-05-29T15:45:51;7.23;;;2.60;;
10904;SDS011;5505;51.450;9.254;2023-05-29T15:48:38;4.50;;;2.23;;
10904;SDS011;5505;51.450;9.254;2023-05-29T15:51:25;3.73;;;1.93;;
10904;SDS011;5505;51.450;9.254;2023-05-29T15:54:12;4.30;;;2.07;;
10904;SDS011;5505;51.450;9.254;2023-05-29T15:56:59;4.23;;;2.30;;
10904;SDS011;5505;51.450;9.254;2023-05-29T15:59:47;5.13;;;1.90;;
10904;SDS011;5505;51.450;9.254;2023-05-29T16:02:36;3.10;;;2.03;;
10904;SDS011;5505;51.450;9.254;2023-05-29T16:05:24;3.90;;;2.00;;
10904;SDS011;5505;51.450;9.254;2023-05-29T16:08:13;5.57;;;2.47;;
10904;SDS011;5505;51.450;9.254;2023-05-29T16:11:00;3.93;;;2.20;;
10904;SDS011;5505;51.450;9.254;2023-05-29T16:13:48;4.67;;;2.40;;
10904;SDS011;5505;51.450;9.254;2023-05-29T16:16:35;5.37;;;2.23;;
10904;SDS011;5505;51.450;9.254;2023-05-29T16:19:24;4.90;;;2.10;;
10904;SDS011;5505;51.450;9.254;2023-05-29T16:22:11;5.33;;;2.10;;
10904;SDS011;5505;51.450;9.254;2023-05-29T16:24:58;2.97;;;1.67;;
10904;SDS011;5505;51.450;9.254;2023-05-29T16:27:45;6.63;;;2.10;;
10904;SDS011;5505;51.450;9.254;2023-05-29T16:30:32;4.50;;;2.20;;
10904;SDS011;5505;51.450;9.254;2023-05-29T16:33:19;4.70;;;2.20;;
10904;SDS011;5505;51.450;9.254;2023-05-29T16:36:08;4.60;;;2.17;;
10904;SDS011;5505;51.450;9.254;2023-05-29T16:38:56;3.97;;;2.10;;
10904;SDS011;5505;51.450;9.254;2023-05-29T16:41:43;3.97;;;2.00;;
10904;SDS011;5505;51.450;9.254;2023-05-29T16:44:30;3.03;;;1.90;;
10904;SDS011;5505;51.450;9.254;2023-05-29T16:47:17;4.97;;;2.10;;
10904;SDS011;5505;51.450;9.254;2023-05-29T16:50:04;3.53;;;1.83;;
10904;SDS011;5505;51.450;9.254;2023-05-29T16:52:54;5.10;;;1.93;;
10904;SDS011;5505;51.450;9.254;2023-05-29T16:55:41;3.47;;;1.80;;
10904;SDS011;5505;51.450;9.254;2023-05-29T16:58:28;5.33;;;2.03;;
10904;SDS011;5505;51.450;9.254;2023-05-29T17:01:15;4.87;;;1.70;;
10904;SDS011;5505;51.450;9.254;2023-05-29T17:04:03;7.77;;;2.10;;
10904;SDS011;5505;51.450;9.254;2023-05-29T17:06:52;7.00;;;2.10;;
10904;SDS011;5505;51.450;9.254;2023-05-29T17:09:41;4.73;;;1.90;;
10904;SDS011;5505;51.450;9.254;2023-05-29T17:12:28;3.13;;;1.90;;
10904;SDS011;5505;51.450;9.254;2023-05-29T17:15:15;4.30;;;2.00;;